createdAt,value
2022-12-20T04:49:47.415Z,-0.28
2022-12-20T04:53:09.478Z,-0.28
2022-12-20T04:56:12.294Z,-0.69
2022-12-20T04:59:15.347Z,-0.61
2022-12-20T05:02:18.303Z,-0.50
2022-12-20T05:05:21.740Z,-0.51
2022-12-20T05:08:24.639Z,-0.48
2022-12-20T05:11:27.592Z,-0.45
2022-12-20T05:14:30.059Z,-0.48
2022-12-20T05:17:33.027Z,-0.45
2022-12-20T05:20:36.613Z,-0.45
2022-12-20T05:23:58.356Z,-0.45
2022-12-20T05:27:01.383Z,-0.46
2022-12-20T05:30:04.757Z,-0.43
2022-12-20T05:33:07.759Z,-0.48
2022-12-20T05:36:10.495Z,-0.48
2022-12-20T05:39:13.214Z,-0.44
2022-12-20T05:42:16.061Z,-0.45
2022-12-20T05:45:18.894Z,-0.43
2022-12-20T05:48:21.958Z,-0.53
2022-12-20T05:51:24.945Z,-0.50
2022-12-20T05:54:27.991Z,-0.42
2022-12-20T05:57:31.538Z,-0.53
2022-12-20T06:00:35.178Z,-0.53
2022-12-20T06:03:39.461Z,-0.52
2022-12-20T06:06:42.295Z,-0.63
2022-12-20T06:09:45.562Z,-0.71
2022-12-20T06:12:48.333Z,-0.74
2022-12-20T06:15:51.743Z,-0.72
2022-12-20T06:18:54.472Z,-0.78
2022-12-20T06:21:59.364Z,-0.81
2022-12-20T06:25:02.283Z,-0.78
2022-12-20T06:28:07.564Z,-0.86
2022-12-20T06:31:11.125Z,-0.86
2022-12-20T06:34:14.028Z,-0.85
2022-12-20T06:37:16.600Z,-0.81
2022-12-20T06:40:20.710Z,-0.77
2022-12-20T06:43:23.128Z,-0.79
2022-12-20T06:46:27.342Z,-0.82
2022-12-20T06:49:31.273Z,-0.73
2022-12-20T06:52:34.143Z,-0.82
2022-12-20T06:55:36.531Z,-0.83
2022-12-20T06:58:39.373Z,-0.78
2022-12-20T07:01:42.127Z,-0.77
2022-12-20T07:04:45.157Z,-0.73
2022-12-20T07:07:47.569Z,-0.66
2022-12-20T07:10:52.871Z,-0.66
2022-12-20T07:14:00.030Z,-0.62
2022-12-20T07:17:03.885Z,-0.48
2022-12-20T07:20:13.017Z,-0.46
2022-12-20T07:23:16.670Z,-0.48
2022-12-20T07:26:19.042Z,-0.37
2022-12-20T07:29:21.703Z,-0.17
2022-12-20T07:32:24.175Z,-0.19
2022-12-20T07:35:28.868Z,-0.05
2022-12-20T07:38:31.601Z,0.05
2022-12-20T07:41:34.292Z,0.10
2022-12-20T07:44:38.900Z,0.16
2022-12-20T07:47:41.520Z,-0.03
2022-12-20T07:50:43.993Z,-0.01
2022-12-20T07:54:00.367Z,0.15
2022-12-20T07:57:12.561Z,0.26
2022-12-20T08:00:16.421Z,0.26
2022-12-20T08:03:23.677Z,0.32
2022-12-20T08:06:26.352Z,0.36
2022-12-20T08:09:35.308Z,0.43
2022-12-20T08:12:38.837Z,0.30
2022-12-20T08:15:41.615Z,0.16
2022-12-20T08:18:44.597Z,0.12
2022-12-20T08:21:48.076Z,0.05
2022-12-20T08:24:50.516Z,0.03
2022-12-20T08:27:54.699Z,-0.04
2022-12-20T08:31:07.965Z,-0.08
2022-12-20T08:34:11.377Z,-0.02
2022-12-20T08:37:17.591Z,0.08
2022-12-20T08:40:21.055Z,0.27
2022-12-20T08:43:23.460Z,0.51
2022-12-20T08:46:26.788Z,0.71
2022-12-20T08:49:29.499Z,0.91
2022-12-20T08:52:32.499Z,0.93
2022-12-20T08:55:35.475Z,0.95
2022-12-20T08:58:39.395Z,0.80
2022-12-20T09:01:42.040Z,0.62
2022-12-20T09:04:45.229Z,0.44
2022-12-20T09:07:47.973Z,0.58
2022-12-20T09:10:52.006Z,0.63
2022-12-20T09:13:57.367Z,0.72
2022-12-20T09:17:00.271Z,0.80
2022-12-20T09:20:03.285Z,0.78
2022-12-20T09:23:06.069Z,0.67
2022-12-20T09:26:11.952Z,0.78
2022-12-20T09:29:18.130Z,0.93
2022-12-20T09:32:24.867Z,1.01
2022-12-20T09:35:28.076Z,1.11
2022-12-20T09:38:32.234Z,1.04
2022-12-20T09:41:39.507Z,1.11
2022-12-20T09:44:42.930Z,1.31
2022-12-20T09:47:45.969Z,1.23
2022-12-20T09:51:16.367Z,1.24
2022-12-20T09:54:34.501Z,1.29
2022-12-20T09:57:39.955Z,1.33
2022-12-20T10:00:53.267Z,1.30
2022-12-20T10:03:59.942Z,1.49
2022-12-20T10:07:09.331Z,1.63
2022-12-20T10:10:27.779Z,1.66
2022-12-20T10:13:46.623Z,1.79
2022-12-20T10:16:56.833Z,2.00
2022-12-20T10:20:08.979Z,1.79
2022-12-20T10:23:36.514Z,1.80
2022-12-20T10:26:39.404Z,1.96
2022-12-20T10:29:42.962Z,1.91
2022-12-20T10:32:48.617Z,1.95
2022-12-20T10:35:52.267Z,2.05
2022-12-20T10:38:59.893Z,1.79
2022-12-20T10:42:02.862Z,2.12
2022-12-20T10:45:23.523Z,2.39
2022-12-20T10:48:40.155Z,2.59
2022-12-20T10:51:52.684Z,2.72
2022-12-20T10:54:55.445Z,2.41
2022-12-20T10:58:03.738Z,2.74
2022-12-20T11:01:13.513Z,2.92
2022-12-20T11:04:25.993Z,2.84
2022-12-20T11:07:32.073Z,2.62
2022-12-20T11:10:35.189Z,2.64
2022-12-20T11:13:38.048Z,2.67
2022-12-20T11:16:40.606Z,2.83
2022-12-20T11:19:49.616Z,2.99
2022-12-20T11:23:01.937Z,3.13
2022-12-20T11:26:19.196Z,3.21
2022-12-20T11:29:36.971Z,3.23
2022-12-20T11:33:11.795Z,2.93
2022-12-20T11:36:38.213Z,2.88
2022-12-20T11:39:58.762Z,2.65
2022-12-20T11:43:13.314Z,2.69
2022-12-20T11:46:31.087Z,2.67
2022-12-20T11:50:11.137Z,2.84
2022-12-20T11:53:20.982Z,3.02
2022-12-20T11:56:45.362Z,3.03
2022-12-20T11:59:55.687Z,2.89
2022-12-20T12:03:40.429Z,2.87
2022-12-20T12:06:53.569Z,3.08
2022-12-20T12:10:14.493Z,3.29
2022-12-20T12:13:29.353Z,3.31
2022-12-20T12:16:44.655Z,3.32
2022-12-20T12:19:51.029Z,3.31
2022-12-20T12:23:01.409Z,3.38
2022-12-20T12:26:13.504Z,3.48
2022-12-20T12:29:17.828Z,3.56
2022-12-20T12:32:44.475Z,3.60
2022-12-20T12:36:16.521Z,3.22
2022-12-20T12:39:38.123Z,3.25
2022-12-20T12:43:13.027Z,3.19
2022-12-20T12:46:29.791Z,2.90
2022-12-20T12:49:33.957Z,2.92
2022-12-20T12:52:49.565Z,2.77
2022-12-20T12:56:07.531Z,2.87
2022-12-20T12:59:40.497Z,3.02
2022-12-20T13:02:51.523Z,3.03
2022-12-20T13:05:54.282Z,3.16
2022-12-20T13:08:56.615Z,3.08
2022-12-20T13:12:02.406Z,3.00
2022-12-20T13:15:20.265Z,2.92
2022-12-20T13:18:24.687Z,2.73
2022-12-20T13:21:35.336Z,2.68
2022-12-20T13:24:42.457Z,2.81
2022-12-20T13:27:44.885Z,2.75
2022-12-20T13:31:09.874Z,2.70
2022-12-20T13:34:58.667Z,2.67
2022-12-20T13:38:07.383Z,2.71
2022-12-20T13:41:20.451Z,2.76
2022-12-20T13:44:41.456Z,2.79
2022-12-20T13:48:05.059Z,2.83
2022-12-20T13:51:17.948Z,2.75
2022-12-20T13:54:26.844Z,2.68
2022-12-20T13:57:43.486Z,2.76
2022-12-20T14:00:47.708Z,2.67
2022-12-20T14:03:51.650Z,2.54
2022-12-20T14:06:58.527Z,2.55
2022-12-20T14:10:04.601Z,2.55
2022-12-20T14:13:25.411Z,2.56
2022-12-20T14:16:30.960Z,2.55
2022-12-20T14:19:33.653Z,2.60
2022-12-20T14:22:37.358Z,2.56
2022-12-20T14:25:48.980Z,2.59
2022-12-20T14:28:54.723Z,2.61
2022-12-20T14:31:57.323Z,2.60
2022-12-20T14:35:00.154Z,2.49
2022-12-20T14:38:04.244Z,2.44
2022-12-20T14:41:35.185Z,2.47
2022-12-20T14:44:38.476Z,2.33
2022-12-20T14:47:55.990Z,2.29
2022-12-20T14:50:59.458Z,2.23
2022-12-20T14:54:02.804Z,2.23
2022-12-20T14:57:11.897Z,2.26
2022-12-20T15:00:17.802Z,2.24
2022-12-20T15:03:23.405Z,2.26
2022-12-20T15:06:44.176Z,2.16
2022-12-20T15:09:46.614Z,2.10
2022-12-20T15:12:49.477Z,2.10
2022-12-20T15:15:52.321Z,1.92
2022-12-20T15:18:57.277Z,1.84
2022-12-20T15:22:00.312Z,1.72
2022-12-20T15:25:16.338Z,1.67
2022-12-20T15:28:21.854Z,1.68
2022-12-20T15:31:33.058Z,1.52
2022-12-20T15:34:38.654Z,1.54
2022-12-20T15:37:41.730Z,1.50
2022-12-20T15:40:46.755Z,1.60
2022-12-20T15:43:56.963Z,1.60
2022-12-20T15:46:59.517Z,1.63
2022-12-20T15:50:02.274Z,1.59
2022-12-20T15:53:04.711Z,1.58
2022-12-20T15:56:17.886Z,1.63
2022-12-20T15:59:57.740Z,1.63
2022-12-20T16:02:43.360Z,1.56
2022-12-20T16:05:48.152Z,1.47
2022-12-20T16:08:50.639Z,1.39
2022-12-20T16:11:53.729Z,1.34
2022-12-20T16:14:56.357Z,1.45
2022-12-20T16:17:59.052Z,1.43
2022-12-20T16:21:03.588Z,1.49
2022-12-20T16:24:06.528Z,1.55
